DFOL weather

Loumana Airport
Loumana, Comoe, Burkina Faso

Public forecast

Using degrees Celsius for public forecast. Weather courtesy of forecast.io.

Closest aviation weather report (METAR) to Loumana Airport

Report is more than 6 hours old.

Closest report is Sikasso Airport, 50.4 nm (93.4 km) NNW. Retrieved 2020/05/21 17:00 UTC (4 days ago):

GASK 211700Z 36030KT 6000 TSRA SCT030 FEW040CB 30/21 Q1012

Closest aviation forecast (TAF) to Loumana Airport

Closest forecast is Bobo Dioulasso Airport, 69.8 nm (129.4 km) ENE. Retrieved 2020/05/25 18:18 UTC (2 hours ago):

TAF TAF DFOO 251700Z 2518/2618 20008KT 9999 FEW020 PROB30 TEMPO 2520/2602 TS SCT020 FEW033CB